createdAt,value
2018-11-02T00:03:53.500Z,14.43
2018-11-02T00:08:57.060Z,13.20
2018-11-02T00:14:00.477Z,11.40
2018-11-02T00:19:03.824Z,6.20
2018-11-02T00:24:07.237Z,9.27
2018-11-02T00:29:10.587Z,9.90
2018-11-02T00:34:14.644Z,10.63
2018-11-02T00:39:18.069Z,9.10
2018-11-02T00:44:21.459Z,9.10
2018-11-02T00:49:24.861Z,11.77
2018-11-02T00:54:28.243Z,11.23
2018-11-02T00:59:31.598Z,12.57
2018-11-02T01:04:35.119Z,10.60
2018-11-02T01:09:39.022Z,11.03
2018-11-02T01:14:42.356Z,13.80
2018-11-02T01:19:45.798Z,9.93
2018-11-02T01:24:49.222Z,16.23
2018-11-02T01:29:52.590Z,13.57
2018-11-02T01:34:56.545Z,7.63
2018-11-02T01:39:59.904Z,13.77
2018-11-02T01:45:03.419Z,9.80
2018-11-02T01:50:07.034Z,8.43
2018-11-02T01:55:10.390Z,10.43
2018-11-02T02:00:13.841Z,13.23
2018-11-02T02:05:17.400Z,10.60
2018-11-02T02:10:20.763Z,10.03
2018-11-02T02:15:24.168Z,12.80
2018-11-02T02:20:27.575Z,14.53
2018-11-02T02:25:30.941Z,9.63
2018-11-02T02:30:34.295Z,9.80
2018-11-02T02:35:37.816Z,11.90
2018-11-02T02:40:41.331Z,14.23
2018-11-02T02:45:44.662Z,14.67
2018-11-02T02:50:48.009Z,14.17
2018-11-02T02:55:51.369Z,12.95
2018-11-02T03:00:54.749Z,11.97
2018-11-02T03:05:58.102Z,10.53
2018-11-02T03:11:01.832Z,14.83
2018-11-02T03:16:05.322Z,12.47
2018-11-02T03:21:08.748Z,12.17
2018-11-02T03:26:12.223Z,10.73
2018-11-02T03:31:15.607Z,11.03
2018-11-02T03:36:18.971Z,9.30
2018-11-02T03:41:22.330Z,12.03
2018-11-02T03:46:25.920Z,10.47
2018-11-02T03:51:29.271Z,12.53
2018-11-02T03:56:33.928Z,10.53
2018-11-02T04:01:37.340Z,10.60
2018-11-02T04:06:40.776Z,14.63
2018-11-02T04:11:44.150Z,11.53
2018-11-02T04:16:47.485Z,12.83
2018-11-02T04:21:50.863Z,12.90
2018-11-02T04:26:54.208Z,9.63
2018-11-02T04:31:57.579Z,10.90
2018-11-02T04:37:00.904Z,11.27
2018-11-02T04:42:04.424Z,12.37
2018-11-02T04:47:07.762Z,15.73
2018-11-02T04:52:11.125Z,8.23
2018-11-02T04:57:14.482Z,11.67
2018-11-02T05:02:17.950Z,10.10
2018-11-02T05:07:21.316Z,9.17
2018-11-02T05:12:24.698Z,13.77
2018-11-02T05:17:28.176Z,11.17
2018-11-02T05:22:31.649Z,13.50
2018-11-02T05:27:35.130Z,14.77
2018-11-02T05:32:40.121Z,11.73
2018-11-02T05:37:43.596Z,11.53
2018-11-02T05:42:47.115Z,14.77
2018-11-02T05:47:50.464Z,14.23
2018-11-02T05:52:53.810Z,11.63
2018-11-02T05:57:57.148Z,10.30
2018-11-02T06:03:00.691Z,11.23
2018-11-02T06:08:04.216Z,14.23
2018-11-02T06:13:07.604Z,12.43
2018-11-02T06:18:10.978Z,11.20
2018-11-02T06:23:14.367Z,14.43
2018-11-02T06:28:17.758Z,11.97
2018-11-02T06:33:21.144Z,15.43
2018-11-02T06:38:24.506Z,12.03
2018-11-02T06:43:27.830Z,15.83
2018-11-02T06:48:31.206Z,13.27
2018-11-02T06:53:40.009Z,13.03
2018-11-02T06:58:43.519Z,15.90
2018-11-02T07:03:47.129Z,16.37
2018-11-02T07:08:50.532Z,11.30
2018-11-02T07:13:53.934Z,15.20
2018-11-02T07:18:57.282Z,12.50
2018-11-02T07:24:00.690Z,16.73
2018-11-02T07:29:04.170Z,14.63
2018-11-02T07:34:07.841Z,13.83
2018-11-02T07:39:11.654Z,14.30
2018-11-02T07:44:15.147Z,15.20
2018-11-02T07:49:23.288Z,16.47
2018-11-02T07:54:27.544Z,20.87
2018-11-02T07:59:31.877Z,18.37
2018-11-02T08:04:35.429Z,16.37
2018-11-02T08:09:42.704Z,15.35
2018-11-02T08:14:46.194Z,18.17
2018-11-02T08:19:51.152Z,19.77
2018-11-02T08:24:54.798Z,17.97
2018-11-02T08:29:58.194Z,17.47
2018-11-02T08:35:02.608Z,19.87
2018-11-02T08:40:06.785Z,18.47
2018-11-02T08:45:10.870Z,15.47
2018-11-02T08:50:14.245Z,21.23
2018-11-02T08:55:17.589Z,18.10
2018-11-02T09:00:21.795Z,14.47
2018-11-02T09:05:25.306Z,16.23
2018-11-02T09:10:28.707Z,18.07
2018-11-02T09:15:32.107Z,16.53
2018-11-02T09:20:35.744Z,19.27
2018-11-02T09:25:39.146Z,23.30
2018-11-02T09:30:42.577Z,18.47
2018-11-02T09:35:46.814Z,16.50
2018-11-02T09:40:50.327Z,17.47
2018-11-02T09:45:53.783Z,18.40
2018-11-02T09:50:57.459Z,20.27
2018-11-02T09:56:00.870Z,19.90
2018-11-02T10:01:04.466Z,19.57
2018-11-02T10:06:08.370Z,19.37
2018-11-02T10:11:12.768Z,15.93
2018-11-02T10:16:16.873Z,17.73
2018-11-02T10:21:20.254Z,18.77
2018-11-02T10:26:24.229Z,19.23
2018-11-02T10:31:27.615Z,19.40
2018-11-02T10:36:31.275Z,19.67
2018-11-02T10:41:37.698Z,15.53
2018-11-02T10:46:41.067Z,20.47
2018-11-02T10:51:44.483Z,17.40
2018-11-02T10:56:48.495Z,16.47
2018-11-02T11:01:56.050Z,11.50
2018-11-02T11:06:59.538Z,3.40
2018-11-02T11:12:02.980Z,1.53
2018-11-02T11:17:06.540Z,1.60
2018-11-02T11:22:09.975Z,2.60
2018-11-02T11:27:13.560Z,2.13
2018-11-02T11:32:16.950Z,3.30
2018-11-02T11:37:20.407Z,1.30
2018-11-02T11:42:23.780Z,1.73
2018-11-02T11:47:27.267Z,2.70
2018-11-02T11:52:30.834Z,3.77
2018-11-02T11:57:38.834Z,2.93
2018-11-02T12:02:42.472Z,1.20
2018-11-02T12:07:45.983Z,2.07
2018-11-02T12:12:49.442Z,3.37
2018-11-02T12:17:52.854Z,2.10
2018-11-02T12:22:57.730Z,1.87
2018-11-02T12:28:01.154Z,2.83
2018-11-02T12:33:04.766Z,1.93
2018-11-02T12:38:08.175Z,2.30
2018-11-02T12:43:11.664Z,1.97
2018-11-02T12:48:15.094Z,3.97
2018-11-02T12:53:18.466Z,2.80
2018-11-02T12:58:22.144Z,2.00
2018-11-02T13:03:25.821Z,2.17
2018-11-02T13:08:29.258Z,4.93
2018-11-02T13:13:33.333Z,2.10
2018-11-02T13:18:36.767Z,3.57
2018-11-02T13:23:40.206Z,4.40
2018-11-02T13:28:43.584Z,2.77
2018-11-02T13:33:47.062Z,1.93
2018-11-02T13:38:51.072Z,2.13
2018-11-02T13:43:54.507Z,1.83
2018-11-02T13:48:57.947Z,1.77
2018-11-02T13:54:01.341Z,1.67
2018-11-02T13:59:05.316Z,2.90
2018-11-02T14:04:08.697Z,1.20
2018-11-02T14:09:12.757Z,1.53
2018-11-02T14:14:16.170Z,2.60
2018-11-02T14:19:19.547Z,2.67
2018-11-02T14:24:23.130Z,2.27
2018-11-02T14:29:26.923Z,2.13
2018-11-02T14:34:31.091Z,1.67
2018-11-02T14:39:36.573Z,3.17
2018-11-02T14:44:40.121Z,2.30
2018-11-02T14:49:43.581Z,1.65
2018-11-02T14:54:47.731Z,2.37
2018-11-02T14:59:51.728Z,2.53
2018-11-02T15:04:56.339Z,1.83
2018-11-02T15:10:01.439Z,2.37
2018-11-02T15:15:06.633Z,2.67
2018-11-02T15:20:12.759Z,3.50
2018-11-02T15:25:16.191Z,5.77
2018-11-02T15:30:19.829Z,2.50
2018-11-02T15:35:23.252Z,3.20
2018-11-02T15:40:26.726Z,2.47
2018-11-02T15:45:30.104Z,3.47
2018-11-02T15:50:33.578Z,3.87
2018-11-02T15:55:37.100Z,4.37
2018-11-02T16:00:40.757Z,3.50
2018-11-02T16:05:44.346Z,5.07
2018-11-02T16:10:47.751Z,3.55
2018-11-02T16:15:51.770Z,3.47
2018-11-02T16:20:55.219Z,5.07
2018-11-02T16:25:58.658Z,4.60
2018-11-02T16:31:02.216Z,5.50
2018-11-02T16:36:05.648Z,6.87
2018-11-02T16:41:09.745Z,5.37
2018-11-02T16:46:13.296Z,5.40
2018-11-02T16:51:16.755Z,5.10
2018-11-02T16:56:20.246Z,12.97
2018-11-02T17:01:23.670Z,6.13
2018-11-02T17:06:27.311Z,9.07
2018-11-02T17:11:30.791Z,7.20
2018-11-02T17:16:34.291Z,5.90
2018-11-02T17:21:37.748Z,8.67
2018-11-02T17:26:41.222Z,6.60
2018-11-02T17:31:44.655Z,9.53
2018-11-02T17:36:50.392Z,8.93
2018-11-02T17:41:55.240Z,8.50
2018-11-02T17:46:59.563Z,11.27
2018-11-02T17:52:03.033Z,8.87
2018-11-02T17:57:07.416Z,10.43
2018-11-02T18:02:10.883Z,9.73
2018-11-02T18:07:14.534Z,10.33
2018-11-02T18:12:19.302Z,7.53
2018-11-02T18:17:23.179Z,23.77
2018-11-02T18:22:26.722Z,8.70
2018-11-02T18:27:30.394Z,7.20
2018-11-02T18:32:33.884Z,8.57
2018-11-02T18:37:37.370Z,7.97
2018-11-02T18:42:40.911Z,10.00
2018-11-02T18:47:45.954Z,11.67
2018-11-02T18:52:49.914Z,7.73
2018-11-02T18:57:53.438Z,9.07
2018-11-02T19:02:56.911Z,8.80
2018-11-02T19:08:01.276Z,8.00
2018-11-02T19:13:04.997Z,10.27
2018-11-02T19:18:09.172Z,11.43
2018-11-02T19:23:12.647Z,11.33
2018-11-02T19:28:16.186Z,13.47
2018-11-02T19:33:19.834Z,13.57
2018-11-02T19:38:23.255Z,14.10
2018-11-02T19:43:26.710Z,11.77
2018-11-02T19:48:30.222Z,16.43
2018-11-02T19:53:33.677Z,12.93
2018-11-02T19:58:37.152Z,10.93
2018-11-02T20:03:40.614Z,9.60
2018-11-02T20:08:44.169Z,10.63
2018-11-02T20:13:47.647Z,13.63
2018-11-02T20:18:51.228Z,13.17
2018-11-02T20:23:55.396Z,14.23
2018-11-02T20:28:58.970Z,11.50
2018-11-02T20:34:02.488Z,12.80
2018-11-02T20:39:09.397Z,11.00
2018-11-02T20:44:12.744Z,7.85
2018-11-02T20:49:18.179Z,9.47
2018-11-02T20:54:21.650Z,5.53
2018-11-02T20:59:25.681Z,7.00
2018-11-02T21:04:29.159Z,7.73
2018-11-02T21:09:33.469Z,6.07
2018-11-02T21:14:36.885Z,6.77
2018-11-02T21:19:42.685Z,7.57
2018-11-02T21:24:46.803Z,6.97
2018-11-02T21:29:50.414Z,9.30
2018-11-02T21:35:05.162Z,5.87
2018-11-02T21:40:11.622Z,6.73
2018-11-02T21:45:17.008Z,8.50
2018-11-02T21:50:20.735Z,7.77
2018-11-02T21:55:24.137Z,9.30
2018-11-02T22:00:27.571Z,8.20
2018-11-02T22:05:30.985Z,9.33
2018-11-02T22:10:34.430Z,12.10
2018-11-02T22:15:37.835Z,8.80
2018-11-02T22:20:41.363Z,10.07
2018-11-02T22:25:44.732Z,7.77
2018-11-02T22:30:48.180Z,10.53
2018-11-02T22:35:51.638Z,9.43
2018-11-02T22:40:55.011Z,7.50
2018-11-02T22:45:58.390Z,9.27
2018-11-02T22:51:01.831Z,9.47
2018-11-02T22:56:05.481Z,8.87
2018-11-02T23:01:14.290Z,10.47
2018-11-02T23:06:17.914Z,9.90
2018-11-02T23:11:21.351Z,12.03
2018-11-02T23:16:24.738Z,9.30
2018-11-02T23:21:28.230Z,9.63
2018-11-02T23:26:31.963Z,11.07
2018-11-02T23:31:35.638Z,10.57
2018-11-02T23:36:38.994Z,9.53
2018-11-02T23:41:42.386Z,11.10
2018-11-02T23:46:45.781Z,9.27
2018-11-02T23:51:49.177Z,11.10
2018-11-02T23:56:52.570Z,11.23
